Skip Navigation Links
NOAA logo - Click to go to the NOAA homepage
NOAA's National Weather Service
Alaska Aviation Weather Unit
  NWS logo - Click to go to the NWS homepage
Left Navbar Graphic     09 AKDT = 17 GMT

   
NOAA is celebrating 200 years of science, service, and stewardship. Visit the NOAA 200th celebration Web site to learn more.
USA.gov is the U.S. Government's official Web portal to all Federal, state and local government Web resources and services.
Facebook
NWS on Facebook

Important Change Regarding the AAWU Web Presence

 

Over the last several months, the AAWU has been working to navigate its webpages to a nationally supported server. Security, as well as other needs, have necessitated the change.  In the process, we have made an effort to enhance the functionality of our website, as well as some of our products. As of June 20, 2017, aawu.arh.noaa.gov will be discontinued. The new AAWU web address is weather.gov/aawu. It is now live and will run in-parallel with the old site until it is discontinued. Please send any feedback or questions regarding the new webpages to nws.ar.aawu.webauthors@noaa.gov.  Thank you for your patience during this time of transition.
AAWU Home :: Display TAF Add Bookmark
METAR PAMB 271156Z AUTO 03006KT 6SM RA BR OVC021 03/03 A2993 RMK AO2
     SLP142 P0007 60010 70014 T00330028 10050 20028 58001 $=

METAR PAMB 271256Z AUTO 01003KT 8SM -RA BKN019 OVC025 03/03 A2993 RMK
     AO2 SLP141 P0008 T00280028 $=

SPECI PAMB 271343Z AUTO 03006KT 6SM -RA BR FEW003 OVC021 03/03 A2993 RMK
     AO2 P0001 $=

METAR PAMB 271356Z AUTO 02006KT 5SM -RA BR FEW003 OVC019 03/03 A2992 RMK
     AO2 SLP140 P0001 T00280028 $=

METAR PAMB 271456Z AUTO 01005KT 8SM -RA BKN015 OVC020 03/02 A2992
 RMK AO2 SLP139 P0005 60014 T00280022 57004 $=

SPECI PAMB 271503Z AUTO 01005KT 10SM -RA OVC013 03/02 A2992 RMK AO2
     P0000 $=

METAR PAMB 271556Z AUTO 01004KT 6SM -RA BR OVC013 03/03 A2992 RMK AO2
     SLP140 P0007 T00280028 $=

METAR PAMB 271656Z AUTO 17006KT 8SM -RA OVC013 04/04 A2992 RMK AO2
     SLP139 P0009 T00440039 $=

SPECI PAMB 271706Z AUTO 14008KT 10SM -RA BKN015 OVC020 05/04 A2992 RMK
     AO2 P0000 $=


NOAA's National Weather Service
Alaska Aviation Weather Unit
6930 Sand Lake Road
Anchorage, AK 99502-1845
Disclaimer
Credits
Glossary
Privacy Policy
About Us
Career Opportunities
Contact AAWU Internet Services Site last modified: April, 17th 2012